Flight Track Log - Related Links

Times and Time Zones

All times are in EDT time to prevent confusion due to time zone crossing. See the UAL1052 flight status page for this flight to view local times or setup timezone preferences in your user account.

Time Position Orientation Groundspeed Altitude Reporting Facility
EDT Latitude Longitude Course Direction KTS MPH feet Rate Location/Type
Fri 06:38:14 PM 19.7000 -156.0667 23° Northeast 230 265 1,600  Level Honolulu Center
Fri 06:39:14 PM 19.7333 -156.1167 305° West 250 288 4,000 2,450 Climbing Honolulu Center
Fri 06:40:00 PM 19.9806 -155.7242 20° North  Level Estimated
Fri 06:40:14 PM 19.7833 -156.1833 309° West 280 322 6,500  Level Honolulu Center
Fri 06:41:00 PM 20.1096 -155.7222 North  Level FlightAware
Fri 06:41:15 PM 19.8333 -156.2500 309° West 290 334 9,100  Level Honolulu Center
Fri 06:42:00 PM 20.1898 -155.6145 22° Northeast  Level Estimated
Fri 06:42:15 PM 19.9000 -156.3167 317° Northwest 310 357 11,400  Level Honolulu Center
Fri 06:43:00 PM 20.2700 -155.5067 23° Northeast  Level Estimated
Fri 06:43:15 PM 19.9667 -156.3833 317° Northwest 350 403 12,700  Level Honolulu Center
Fri 06:44:16 PM 20.0667 -156.3833 360° North 380 437 14,000 645 Climbing Honolulu Center
Fri 06:45:16 PM 20.1667 -156.3167 32° Northeast 380 437 14,000 198 Level Honolulu Center
Fri 06:46:17 PM 20.2500 -156.2667 29° Northeast 380 437 14,400 1,289 Climbing Honolulu Center
Fri 06:47:17 PM 20.3500 -156.2000 32° Northeast 390 449 16,600 1,850 Climbing Honolulu Center
Fri 06:48:17 PM 20.4500 -156.1500 25° Northeast 410 472 18,100 1,736 Climbing Honolulu Center
Fri 06:49:18 PM 20.5500 -156.0833 32° Northeast 420 483 20,100 1,736 Climbing Honolulu Center
Fri 06:50:18 PM 20.6500 -156.0333 25° Northeast 430 495 21,600 1,600 Climbing Honolulu Center
Fri 06:51:18 PM 20.7667 -155.9667 28° Northeast 440 506 23,300 1,686 Climbing Honolulu Center
Fri 06:52:19 PM 20.8833 -155.9000 28° Northeast 450 518 25,000 1,488 Climbing Honolulu Center
Fri 06:53:19 PM 20.9833 -155.8333 32° Northeast 470 541 26,300 1,300 Climbing Honolulu Center
Fri 06:54:19 PM 21.1000 -155.7667 28° Northeast 470 541 27,600 1,240 Climbing Honolulu Center
Fri 06:55:20 PM 21.2333 -155.7000 25° Northeast 480 552 28,800 1,240 Climbing Honolulu Center
Fri 06:56:20 PM 21.3500 -155.6333 28° Northeast 490 564 30,100 1,350 Climbing Honolulu Center
Fri 06:57:20 PM 21.4500 -155.5667 32° Northeast 490 564 31,500 1,500 Climbing Honolulu Center
Fri 06:58:20 PM 21.5667 -155.5000 28° Northeast 490 564 33,100 1,339 Climbing Honolulu Center
Fri 06:59:21 PM 21.6833 -155.4167 34° Northeast 490 564 34,200 942 Climbing Honolulu Center
Fri 07:00:21 PM 21.8167 -155.3500 25° Northeast 490 564 35,000 400 Climbing Honolulu Center
Fri 07:01:21 PM 21.9333 -155.2833 28° Northeast 480 552 35,000  Level Honolulu Center
Fri 07:02:22 PM 22.0500 -155.2167 28° Northeast 490 564 35,000  Level Honolulu Center
Fri 07:03:22 PM 22.1667 -155.1333 33° Northeast 490 564 35,000  Level Honolulu Center
Fri 07:04:23 PM 22.2833 -155.0667 28° Northeast 480 552 35,000  Level Honolulu Center
Fri 07:05:23 PM 22.4000 -155.0000 28° Northeast 490 564 35,000  Level Honolulu Center
Fri 07:06:23 PM 22.5333 -154.9333 25° Northeast 490 564 35,000  Level Honolulu Center
Fri 07:07:24 PM 22.6667 -154.8500 30° Northeast 490 564 35,000  Level Honolulu Center
Fri 07:08:24 PM 22.7833 -154.7667 33° Northeast 480 552 35,000  Level Honolulu Center
Fri 07:09:24 PM 22.9000 -154.7000 28° Northeast 480 552 35,000  Level Honolulu Center
Fri 07:11:00 PM 23.0502 -154.5662 57° Northeast  Level FlightAware
Fri 07:18:00 PM 23.5301 -153.7580 57° Northeast  Level FlightAware
Fri 07:19:00 PM 23.5983 -153.6421 57° Northeast  Level FlightAware
Fri 07:20:00 PM 23.6664 -153.5260 57° Northeast  Level FlightAware
Fri 07:21:00 PM 23.7345 -153.4099 57° Northeast  Level FlightAware
Fri 07:22:00 PM 23.8053 -153.2966 57° Northeast  Level FlightAware
Fri 07:22:27 PM 23.7833 -153.3667 57° Northeast 500 575 35,000  Level Oakland Oceanic
Fri 07:23:00 PM 23.8743 -153.1810 57° Northeast  Level FlightAware
Fri 07:24:00 PM 23.9432 -153.0653 57° Northeast  Level FlightAware
Fri 07:25:00 PM 24.0123 -152.9494 57° Northeast  Level FlightAware
Fri 07:26:00 PM 24.0814 -152.8335 57° Northeast  Level FlightAware
Fri 07:27:00 PM 24.1504 -152.7174 57° Northeast  Level FlightAware
Fri 07:28:00 PM 24.3883 -152.3445 57° Northeast 500 575 35,000  Level FlightAware
Fri 07:29:00 PM 24.4634 -152.2160 57° Northeast 500 575 35,000  Level FlightAware
Fri 07:30:00 PM 24.5384 -152.0874 57° Northeast 500 575 35,000  Level FlightAware
Fri 07:31:00 PM 24.6134 -151.9586 57° Northeast 500 575 35,000  Level FlightAware
Fri 07:32:00 PM 24.6882 -151.8297 57° Northeast 500 575 35,000  Level FlightAware
Fri 07:33:00 PM 24.7629 -151.7006 58° Northeast 500 575 35,000  Level FlightAware
Fri 07:34:00 PM 24.8375 -151.5714 58° Northeast 500 575 35,000  Level FlightAware
Fri 07:35:00 PM 24.9119 -151.4420 58° Northeast 500 575 35,000  Level FlightAware
Fri 07:36:00 PM 24.9863 -151.3125 58° Northeast 500 575 35,000  Level FlightAware
Fri 07:37:00 PM 25.0606 -151.1828 58° Northeast 500 575 35,000  Level FlightAware
Fri 07:38:00 PM 25.1347 -151.0529 58° Northeast 500 575 35,000  Level FlightAware
Fri 07:39:00 PM 25.2087 -150.9229 58° Northeast 500 575 35,000  Level FlightAware
Fri 07:40:00 PM 25.2826 -150.7928 58° Northeast 500 575 35,000  Level FlightAware
Fri 07:41:00 PM 25.3564 -150.6624 58° Northeast 500 575 35,000  Level FlightAware
Fri 07:42:00 PM 25.4301 -150.5319 58° Northeast 500 575 35,000  Level FlightAware
Fri 07:43:00 PM 25.5037 -150.4013 58° Northeast 500 575 35,000  Level FlightAware
Fri 07:44:00 PM 25.5771 -150.2705 58° Northeast 500 575 35,000  Level FlightAware
Fri 07:45:00 PM 25.6505 -150.1395 58° Northeast 500 575 35,000  Level FlightAware
Fri 07:46:00 PM 25.7237 -150.0084 58° Northeast 500 575 35,000  Level FlightAware
Fri 07:47:00 PM 25.7968 -149.8771 58° Northeast 500 575 35,000  Level FlightAware
Fri 07:48:00 PM 25.8698 -149.7456 58° Northeast 500 575 35,000  Level FlightAware
Fri 07:49:00 PM 25.9426 -149.6140 58° Northeast 500 575 35,000  Level FlightAware
Fri 07:50:00 PM 26.0154 -149.4822 58° Northeast 500 575 35,000  Level FlightAware
Fri 07:51:00 PM 26.0880 -149.3503 59° Northeast 500 575 35,000  Level FlightAware
Fri 07:52:00 PM 26.1605 -149.2182 59° Northeast 500 575 35,000  Level FlightAware
Fri 07:53:00 PM 26.2329 -149.0859 59° Northeast 500 575 35,000  Level FlightAware
Fri 07:54:00 PM 26.3052 -148.9535 59° Northeast 500 575 35,000  Level FlightAware
Fri 07:55:00 PM 26.3773 -148.8209 59° Northeast 500 575 35,000  Level FlightAware
Fri 07:56:00 PM 26.4493 -148.6881 59° Northeast 500 575 35,000  Level FlightAware
Fri 07:57:00 PM 26.5212 -148.5552 59° Northeast 500 575 35,000  Level FlightAware
Fri 07:58:00 PM 26.5930 -148.4221 59° Northeast 500 575 35,000  Level FlightAware
Fri 07:59:00 PM 26.6647 -148.2888 59° Northeast 500 575 35,000  Level FlightAware
Fri 08:00:00 PM 26.7362 -148.1554 59° Northeast 500 575 35,000  Level FlightAware
Fri 08:01:00 PM 26.8076 -148.0218 59° Northeast 500 575 35,000  Level FlightAware
Fri 08:02:00 PM 26.8789 -147.8880 59° Northeast 500 575 35,000  Level FlightAware
Fri 08:03:00 PM 26.9500 -147.7541 59° Northeast 500 575 35,000  Level FlightAware
Fri 08:04:00 PM 27.0210 -147.6200 59° Northeast 500 575 35,000  Level FlightAware
Fri 08:05:00 PM 27.0919 -147.4857 59° Northeast 500 575 35,000  Level FlightAware
Fri 08:06:00 PM 27.1627 -147.3513 59° Northeast 500 575 35,000  Level FlightAware
Fri 08:07:00 PM 27.2333 -147.2167 59° Northeast 500 575 35,000  Level FlightAware
Fri 08:08:00 PM 27.3024 -147.0849 60° Northeast 500 575 35,000  Level FlightAware
Fri 08:09:00 PM 27.3713 -146.9529 60° Northeast 500 575 35,000  Level FlightAware
Fri 08:10:00 PM 27.4402 -146.8208 60° Northeast 500 575 35,000  Level FlightAware
Fri 08:10:25 PM 27.2333 -147.2167 59° Northeast 500 575 35,000  Level Oakland Oceanic
Fri 08:11:00 PM 27.5089 -146.6886 60° Northeast 500 575 35,000  Level FlightAware
Fri 08:12:00 PM 27.5774 -146.5561 60° Northeast 500 575 35,000  Level FlightAware
Fri 08:13:00 PM 27.6459 -146.4235 60° Northeast 500 575 35,000  Level FlightAware
Fri 08:14:00 PM 27.7142 -146.2908 60° Northeast 500 575 35,000  Level FlightAware
Fri 08:15:00 PM 27.7824 -146.1578 60° Northeast 500 575 35,000  Level FlightAware
Fri 08:16:00 PM 27.8635 -145.9992 60° Northeast 500 575 35,000  Level FlightAware
Fri 08:17:00 PM 27.9328 -145.8631 60° Northeast 500 575 35,000  Level FlightAware
Fri 08:18:00 PM 28.0021 -145.7268 60° Northeast 500 575 35,000  Level FlightAware
Fri 08:19:00 PM 28.0712 -145.5903 60° Northeast 500 575 35,000  Level FlightAware
Fri 08:20:00 PM 28.1401 -145.4536 60° Northeast 500 575 35,000  Level FlightAware
Fri 08:21:00 PM 28.2089 -145.3168 60° Northeast 500 575 35,000  Level FlightAware
Fri 08:22:00 PM 28.2776 -145.1797 60° Northeast 500 575 35,000  Level FlightAware
Fri 08:23:00 PM 28.3462 -145.0426 60° Northeast 500 575 35,000  Level FlightAware
Fri 08:24:00 PM 28.4146 -144.9052 61° Northeast 500 575 35,000  Level FlightAware
Fri 08:25:00 PM 28.4828 -144.7676 61° Northeast 500 575 35,000  Level FlightAware
Fri 08:26:00 PM 28.5510 -144.6299 61° Northeast 500 575 35,000  Level FlightAware
Fri 08:27:00 PM 28.6190 -144.4920 61° Northeast 500 575 35,000  Level FlightAware
Fri 08:28:00 PM 28.6868 -144.3539 61° Northeast 500 575 35,000  Level FlightAware
Fri 08:29:00 PM 28.7545 -144.2157 61° Northeast 500 575 35,000  Level FlightAware
Fri 08:30:00 PM 28.8221 -144.0772 61° Northeast 500 575 35,000  Level FlightAware
Fri 08:31:00 PM 28.8895 -143.9386 61° Northeast 500 575 35,000  Level FlightAware
Fri 08:32:00 PM 28.9568 -143.7998 61° Northeast 500 575 35,000  Level FlightAware
Fri 08:33:00 PM 29.0240 -143.6608 61° Northeast 500 575 35,000  Level FlightAware
Fri 08:34:00 PM 29.0910 -143.5217 61° Northeast 500 575 35,000  Level FlightAware
Fri 08:35:00 PM 29.1578 -143.3823 61° Northeast 500 575 35,000  Level FlightAware
Fri 08:36:00 PM 29.2245 -143.2428 61° Northeast 500 575 35,000  Level FlightAware
Fri 08:37:00 PM 29.2911 -143.1031 61° Northeast 500 575 35,000  Level FlightAware
Fri 08:38:00 PM 29.3575 -142.9632 61° Northeast 500 575 35,000  Level FlightAware
Fri 08:39:00 PM 29.4238 -142.8231 62° Northeast 500 575 35,000  Level FlightAware
Fri 08:40:00 PM 29.4899 -142.6829 62° Northeast 500 575 35,000  Level FlightAware
Fri 08:41:00 PM 29.5559 -142.5424 62° Northeast 500 575 35,000  Level FlightAware
Fri 08:42:00 PM 29.6217 -142.4018 62° Northeast 500 575 35,000  Level FlightAware
Fri 08:43:00 PM 29.6874 -142.2610 62° Northeast 500 575 35,000  Level FlightAware
Fri 08:44:00 PM 29.7530 -142.1200 62° Northeast 500 575 35,000  Level FlightAware
Fri 08:45:00 PM 29.8183 -141.9789 62° Northeast 500 575 35,000  Level FlightAware
Fri 08:46:00 PM 29.8836 -141.8375 62° Northeast 500 575 35,000  Level FlightAware
Fri 08:47:00 PM 29.9487 -141.6960 62° Northeast 500 575 35,000  Level FlightAware
Fri 08:48:00 PM 30.0136 -141.5542 62° Northeast 500 575 35,000  Level FlightAware
Fri 08:49:00 PM 30.0784 -141.4123 62° Northeast 500 575 35,000  Level FlightAware
Fri 08:50:00 PM 30.1430 -141.2702 62° Northeast 500 575 35,000  Level FlightAware
Fri 08:51:00 PM 30.2075 -141.1280 62° Northeast 500 575 35,000  Level FlightAware
Fri 08:52:00 PM 30.2718 -140.9855 62° Northeast 500 575 35,000  Level FlightAware
Fri 08:53:00 PM 30.3360 -140.8428 63° Northeast 500 575 35,000  Level FlightAware
Fri 08:54:00 PM 30.4000 -140.7000 63° Northeast 500 575 35,000  Level FlightAware
Fri 08:55:00 PM 30.4614 -140.5627 63° Northeast 500 575 35,000  Level FlightAware
Fri 08:56:00 PM 30.5227 -140.4251 63° Northeast 500 575 35,000  Level FlightAware
Fri 08:57:00 PM 30.5838 -140.2874 63° Northeast 500 575 35,000  Level FlightAware
Fri 08:58:00 PM 30.6448 -140.1496 63° Northeast 500 575 35,000  Level FlightAware
Fri 08:58:08 PM 30.4000 -140.7000 63° Northeast 480 552 35,000  Level Oakland Oceanic
Fri 08:59:00 PM 30.7056 -140.0115 63° Northeast 500 575 35,000  Level FlightAware
Fri 09:00:00 PM 30.7663 -139.8733 63° Northeast 500 575 35,000  Level FlightAware
Fri 09:01:00 PM 30.8268 -139.7349 63° Northeast 500 575 35,000  Level FlightAware
Fri 09:02:00 PM 30.8872 -139.5963 63° Northeast 500 575 35,000  Level FlightAware
Fri 09:03:00 PM 30.9475 -139.4576 63° Northeast 500 575 35,000  Level FlightAware
Fri 09:04:00 PM 30.9475 -139.4576 63° Northeast 480 552 35,000  Level FlightAware
Fri 09:05:00 PM 31.0075 -139.3186 63° Northeast 480 552 35,000  Level FlightAware
Fri 09:06:00 PM 31.0675 -139.1796 63° Northeast 480 552 35,000  Level FlightAware
Fri 09:07:00 PM 31.1273 -139.0403 63° Northeast 480 552 35,000  Level FlightAware
Fri 09:08:00 PM 31.1869 -138.9008 63° Northeast 480 552 35,000  Level FlightAware
Fri 09:09:00 PM 31.2464 -138.7612 64° Northeast 480 552 35,000  Level FlightAware
Fri 09:10:00 PM 31.3058 -138.6214 64° Northeast 480 552 35,000  Level FlightAware
Fri 09:11:00 PM 31.3650 -138.4815 64° Northeast 480 552 35,000  Level FlightAware
Fri 09:12:00 PM 31.4240 -138.3413 64° Northeast 480 552 35,000  Level FlightAware
Fri 09:13:00 PM 31.4829 -138.2010 64° Northeast 480 552 35,000  Level FlightAware
Fri 09:14:00 PM 31.5416 -138.0605 64° Northeast 480 552 35,000  Level FlightAware
Fri 09:15:00 PM 31.6002 -137.9198 64° Northeast 480 552 35,000  Level FlightAware
Fri 09:16:00 PM 31.6586 -137.7789 64° Northeast 480 552 35,000  Level FlightAware
Fri 09:17:00 PM 31.7169 -137.6379 64° Northeast 480 552 35,000  Level FlightAware
Fri 09:18:00 PM 31.7750 -137.4967 64° Northeast 480 552 35,000  Level FlightAware
Fri 09:19:00 PM 31.8330 -137.3553 64° Northeast 480 552 35,000  Level FlightAware
Fri 09:20:00 PM 31.8908 -137.2138 64° Northeast 480 552 35,000  Level FlightAware
Fri 09:21:00 PM 31.9484 -137.0720 64° Northeast 480 552 35,000  Level FlightAware
Fri 09:22:00 PM 32.0059 -136.9301 65° Northeast 480 552 35,000  Level FlightAware
Fri 09:23:00 PM 32.0632 -136.7880 65° Northeast 480 552 35,000  Level FlightAware
Fri 09:24:00 PM 32.1204 -136.6457 65° Northeast 480 552 35,000  Level FlightAware
Fri 09:25:00 PM 32.1774 -136.5033 65° Northeast 480 552 35,000  Level FlightAware
Fri 09:26:00 PM 32.2343 -136.3606 65° Northeast 480 552 35,000  Level FlightAware
Fri 09:27:00 PM 32.2910 -136.2178 65° Northeast 480 552 35,000  Level FlightAware
Fri 09:28:00 PM 32.3475 -136.0748 65° Northeast 480 552 35,000  Level FlightAware
Fri 09:29:00 PM 32.4039 -135.9317 65° Northeast 480 552 35,000  Level FlightAware
Fri 09:30:00 PM 32.4601 -135.7883 65° Northeast 480 552 35,000  Level FlightAware
Fri 09:31:00 PM 32.5161 -135.6448 65° Northeast 480 552 35,000  Level FlightAware
Fri 09:32:00 PM 32.5720 -135.5011 65° Northeast 480 552 35,000  Level FlightAware
Fri 09:33:00 PM 32.6277 -135.3572 65° Northeast 480 552 35,000  Level FlightAware
Fri 09:34:00 PM 32.6833 -135.2132 65° Northeast 480 552 35,000  Level FlightAware
Fri 09:35:00 PM 32.7386 -135.0689 66° East 480 552 35,000  Level FlightAware
Fri 09:36:00 PM 32.7939 -134.9245 66° East 480 552 35,000  Level FlightAware
Fri 09:37:00 PM 32.8489 -134.7799 66° East 480 552 35,000  Level FlightAware
Fri 09:38:00 PM 32.9038 -134.6351 66° East 480 552 35,000  Level FlightAware
Fri 09:39:00 PM 32.9585 -134.4902 66° East 480 552 35,000  Level FlightAware
Fri 09:40:00 PM 33.0131 -134.3450 66° East 480 552 35,000  Level FlightAware
Fri 09:41:00 PM 33.0675 -134.1997 66° East 480 552 35,000  Level FlightAware
Fri 09:42:00 PM 33.1217 -134.0542 66° East 480 552 35,000  Level FlightAware
Fri 09:43:00 PM 33.1757 -133.9086 66° East 480 552 35,000  Level FlightAware
Fri 09:44:00 PM 33.2296 -133.7627 66° East 480 552 35,000  Level FlightAware
Fri 09:45:00 PM 33.2833 -133.6167 66° East 480 552 35,000  Level FlightAware
Fri 09:46:00 PM 33.3347 -133.4763 66° East 480 552 35,000  Level FlightAware
Fri 09:47:00 PM 33.3859 -133.3358 66° East 480 552 35,000 667 Level FlightAware
Fri 09:47:30 PM 33.2833 -133.6167 66° East 471 542 36,000  Climbing Oakland Oceanic
Fri 09:48:00 PM 33.4369 -133.1951 67° East 480 552 35,000 -667 Descending FlightAware
Fri 09:49:00 PM 33.4878 -133.0542 67° East 480 552 35,000  Level FlightAware
Fri 09:50:00 PM 33.5385 -132.9132 67° East 480 552 35,000  Level FlightAware
Fri 09:51:00 PM 33.5891 -132.7720 67° East 480 552 35,000  Level FlightAware
Fri 09:52:00 PM 33.6395 -132.6307 67° East 480 552 35,000 500 Level FlightAware
Fri 09:53:00 PM 33.6464 -132.6113 67° East 471 542 36,000 500 Climbing FlightAware
Fri 09:54:00 PM 33.6976 -132.4669 67° East 471 542 36,000  Level FlightAware
Fri 09:55:00 PM 33.7486 -132.3225 67° East 471 542 36,000  Level FlightAware
Fri 09:56:00 PM 33.7995 -132.1778 67° East 471 542 36,000  Level FlightAware
Fri 09:57:00 PM 33.8502 -132.0330 67° East 471 542 36,000  Level FlightAware
Fri 09:58:00 PM 33.9007 -131.8880 67° East 471 542 36,000  Level FlightAware
Fri 09:59:00 PM 33.9511 -131.7428 67° East 471 542 36,000  Level FlightAware
Fri 10:00:00 PM 34.0012 -131.5974 67° East 471 542 36,000  Level FlightAware
Fri 10:01:00 PM 34.0513 -131.4519 68° East 471 542 36,000  Level FlightAware
Fri 10:02:00 PM 34.1011 -131.3062 68° East 471 542 36,000  Level FlightAware
Fri 10:03:00 PM 34.1508 -131.1604 68° East 471 542 36,000  Level FlightAware
Fri 10:04:00 PM 34.2003 -131.0144 68° East 471 542 36,000  Level FlightAware
Fri 10:05:00 PM 34.2496 -130.8681 68° East 471 542 36,000  Level FlightAware
Fri 10:06:00 PM 34.2987 -130.7218 68° East 471 542 36,000  Level FlightAware
Fri 10:07:00 PM 34.3477 -130.5752 68° East 471 542 36,000  Level FlightAware
Fri 10:08:00 PM 34.3965 -130.4285 68° East 471 542 36,000  Level FlightAware
Fri 10:09:00 PM 34.4451 -130.2816 68° East 471 542 36,000  Level FlightAware
Fri 10:10:00 PM 34.4936 -130.1346 68° East 471 542 36,000  Level FlightAware
Fri 10:11:00 PM 34.5419 -129.9873 68° East 471 542 36,000  Level FlightAware
Fri 10:12:00 PM 34.5900 -129.8399 68° East 471 542 36,000  Level FlightAware
Fri 10:13:00 PM 34.6379 -129.6924 69° East 471 542 36,000  Level FlightAware
Fri 10:14:00 PM 34.6856 -129.5446 69° East 471 542 36,000  Level FlightAware
Fri 10:15:00 PM 34.7332 -129.3967 69° East 471 542 36,000  Level FlightAware
Fri 10:16:00 PM 34.7806 -129.2486 69° East 471 542 36,000  Level FlightAware
Fri 10:17:00 PM 34.8278 -129.1004 69° East 471 542 36,000  Level FlightAware
Fri 10:18:00 PM 34.8748 -128.9520 69° East 471 542 36,000  Level FlightAware
Fri 10:19:00 PM 34.9216 -128.8034 69° East 471 542 36,000  Level FlightAware
Fri 10:20:00 PM 34.9683 -128.6546 69° East 471 542 36,000  Level FlightAware
Fri 10:21:00 PM 35.0148 -128.5057 69° East 471 542 36,000  Level FlightAware
Fri 10:22:00 PM 35.0611 -128.3566 69° East 471 542 36,000  Level FlightAware
Fri 10:23:00 PM 35.1072 -128.2073 69° East 471 542 36,000  Level FlightAware
Fri 10:24:00 PM 35.1531 -128.0579 69° East 471 542 36,000  Level FlightAware
Fri 10:25:00 PM 35.1989 -127.9083 70° East 471 542 36,000  Level FlightAware
Fri 10:26:00 PM 35.2444 -127.7585 70° East 471 542 36,000  Level FlightAware
Fri 10:27:00 PM 35.2898 -127.6086 70° East 471 542 36,000  Level FlightAware
Fri 10:28:00 PM 35.3350 -127.4585 70° East 471 542 36,000  Level FlightAware
Fri 10:29:00 PM 35.3800 -127.3082 70° East 471 542 36,000  Level FlightAware
Fri 10:30:00 PM 35.4248 -127.1578 70° East 471 542 36,000  Level FlightAware
Fri 10:31:00 PM 35.4695 -127.0071 70° East 471 542 36,000  Level FlightAware
Fri 10:32:00 PM 35.5139 -126.8564 70° East 471 542 36,000  Level FlightAware
Fri 10:33:00 PM 35.5582 -126.7054 70° East 471 542 36,000  Level FlightAware
Fri 10:34:00 PM 35.6022 -126.5543 70° East 471 542 36,000  Level FlightAware
Fri 10:35:00 PM 35.6461 -126.4031 70° East 471 542 36,000  Level FlightAware
Fri 10:35:14 PM 35.6061 -126.5417 67° East 461 531 36,000  Level Oakland Center
Fri 10:36:00 PM 35.6898 -126.2516 70° East 471 542 36,000  Level FlightAware
Fri 10:36:15 PM 35.6475 -126.3944 71° East 459 528 36,000  Level Oakland Center
Fri 10:37:00 PM 35.7333 -126.1000 67° East 471 542 36,000  Level FlightAware
Fri 10:37:16 PM 35.6911 -126.2492 70° East 458 527 36,000  Level Oakland Center
Fri 10:38:00 PM 35.7841 -125.9526 67° East 471 542 36,000  Level FlightAware
Fri 10:38:17 PM 35.7325 -126.1036 71° East 455 524 36,000  Level Oakland Center
Fri 10:39:00 PM 35.8346 -125.8050 67° East 471 542 36,000  Level FlightAware
Fri 10:39:18 PM 35.7819 -125.9600 67° East 457 526 36,000  Level Oakland Center
Fri 10:40:00 PM 35.8850 -125.6572 67° East 471 542 36,000  Level FlightAware
Fri 10:40:19 PM 35.8439 -125.8225 61° Northeast 460 529 36,000  Level Oakland Center
Fri 10:41:21 PM 35.9136 -125.6931 56° Northeast 459 528 36,000  Level Oakland Center
Fri 10:42:22 PM 35.9828 -125.5639 56° Northeast 456 525 36,000  Level Oakland Center
Fri 10:43:23 PM 36.0500 -125.4317 58° Northeast 455 524 36,000  Level Oakland Center
Fri 10:44:24 PM 36.1108 -125.2967 61° Northeast 451 519 36,000  Level Oakland Center
Fri 10:45:25 PM 36.1906 -125.1367 58° Northeast 455 524 36,000  Level Oakland Center
Fri 10:46:26 PM 36.2569 -125.0033 58° Northeast 457 526 36,000  Level Oakland Center
Fri 10:47:28 PM 36.3208 -124.8694 59° Northeast 452 520 36,000  Level Oakland Center
Fri 10:48:29 PM 36.3867 -124.7344 59° Northeast 457 526 36,000 -49 Level Oakland Center
Fri 10:49:30 PM 36.4525 -124.5983 59° Northeast 460 529 35,900 -1,082 Descending Oakland Center
Fri 10:50:31 PM 36.5156 -124.4633 60° Northeast 455 524 33,800 -2,164 Descending Oakland Center
Fri 10:51:32 PM 36.5806 -124.3258 59° Northeast 461 531 31,500 -2,016 Descending Oakland Center
Fri 10:52:33 PM 36.6431 -124.1939 59° Northeast 448 516 29,700 -1,805 Descending Oakland Center
Fri 10:53:35 PM 36.7047 -124.0647 59° Northeast 437 503 27,800 -1,902 Descending Oakland Center
Fri 10:54:36 PM 36.7631 -123.9392 60° Northeast 422 486 25,800 -2,115 Descending Oakland Center
Fri 10:55:37 PM 36.8308 -123.7914 60° Northeast 411 473 23,500 -2,066 Descending Oakland Center
Fri 10:56:38 PM 36.8864 -123.6719 60° Northeast 400 460 21,600 -1,820 Descending Oakland Center
Fri 10:57:39 PM 36.9408 -123.5542 60° Northeast 395 455 19,800 -1,756 Descending Oakland Center
Fri 10:58:41 PM 36.9936 -123.4406 60° Northeast 381 438 18,000 -1,707 Descending Oakland Center
Fri 10:59:42 PM 37.0483 -123.3317 58° Northeast 373 429 16,300 -1,672 Descending Oakland Center
Fri 11:00:43 PM 37.0981 -123.2200 61° Northeast 369 425 14,600 -1,721 Descending Oakland Center
Fri 11:01:44 PM 37.1456 -123.1122 61° Northeast 360 414 12,800 -1,721 Descending Oakland Center
Fri 11:02:45 PM 37.1939 -123.0081 60° Northeast 352 405 11,100 -1,279 Descending Oakland Center
Fri 11:03:46 PM 37.2386 -122.9081 61° Northeast 343 395 10,200 -541 Descending Oakland Center
Fri 11:04:47 PM 37.2694 -122.8178 67° East 313 360 10,000 -98 Descending Oakland Center
Fri 11:05:49 PM 37.2978 -122.7006 73° East 296 341 10,000 -98 Level Oakland Center
Fri 11:06:50 PM 37.3200 -122.6022 74° East 295 339 9,800 -639 Descending Oakland Center
Fri 11:07:51 PM 37.3411 -122.5089 74° East 287 330 8,700 -885 Descending Oakland Center
Fri 11:08:52 PM 37.3619 -122.4206 73° East 273 314 8,000 -344 Descending Oakland Center
Fri 11:09:53 PM 37.3814 -122.3333 74° East 265 305 8,000 -148 Level Oakland Center
Fri 11:10:54 PM 37.4006 -122.2483 74° East 258 297 7,700 -836 Descending Oakland Center
Fri 11:11:55 PM 37.4311 -122.1803 61° Northeast 239 275 6,300 -1,230 Descending Oakland Center
Fri 11:12:56 PM 37.4908 -122.1750 North 230 265 5,200 -1,279 Descending Oakland Center
Fri 11:13:57 PM 37.5428 -122.1981 341° North 204 235 3,700 -1,525 Descending Oakland Center
Fri 11:14:58 PM 37.5658 -122.2500 299° West 182 209 2,100 -1,328 Descending Oakland Center
Fri 11:15:59 PM 37.5892 -122.3056 298° West 163 188 1,000 -934 Descending Oakland Center
Fri 11:17:00 PM 37.6086 -122.3503 299° West 152 175 200 -787 Descending Oakland Center

Login

Don't have an account? Register now (free) for customized features, flight alerts, and more!